sensor_id;sensor_type;location;lat;lon;timestamp;temperature;humidity
61253;DHT22;47127;47.516;8.596;2022-08-03T00:00:39;21.50;98.40
61253;DHT22;47127;47.516;8.596;2022-08-03T00:03:05;21.50;98.60
61253;DHT22;47127;47.516;8.596;2022-08-03T00:05:30;21.40;98.60
61253;DHT22;47127;47.516;8.596;2022-08-03T00:07:58;21.40;98.80
61253;DHT22;47127;47.516;8.596;2022-08-03T00:10:24;21.30;98.90
61253;DHT22;47127;47.516;8.596;2022-08-03T00:12:49;21.20;99.10
61253;DHT22;47127;47.516;8.596;2022-08-03T00:15:15;21.30;98.90
61253;DHT22;47127;47.516;8.596;2022-08-03T00:17:41;21.20;99.00
61253;DHT22;47127;47.516;8.596;2022-08-03T00:20:07;21.10;99.30
61253;DHT22;47127;47.516;8.596;2022-08-03T00:22:34;21.10;99.50
61253;DHT22;47127;47.516;8.596;2022-08-03T00:24:59;20.90;99.70
61253;DHT22;47127;47.516;8.596;2022-08-03T00:27:25;20.90;99.80
61253;DHT22;47127;47.516;8.596;2022-08-03T00:29:51;20.90;99.90
61253;DHT22;47127;47.516;8.596;2022-08-03T00:32:16;20.90;99.90
61253;DHT22;47127;47.516;8.596;2022-08-03T00:34:42;20.90;99.90
61253;DHT22;47127;47.516;8.596;2022-08-03T00:37:07;20.80;99.90
61253;DHT22;47127;47.516;8.596;2022-08-03T00:39:33;20.80;99.90
61253;DHT22;47127;47.516;8.596;2022-08-03T00:42:04;20.80;99.90
61253;DHT22;47127;47.516;8.596;2022-08-03T00:44:30;20.90;99.90
61253;DHT22;47127;47.516;8.596;2022-08-03T00:46:55;20.80;99.90
61253;DHT22;47127;47.516;8.596;2022-08-03T00:49:21;20.80;99.90
61253;DHT22;47127;47.516;8.596;2022-08-03T00:51:47;20.70;99.90
61253;DHT22;47127;47.516;8.596;2022-08-03T00:54:14;20.70;99.90
61253;DHT22;47127;47.516;8.596;2022-08-03T00:56:40;20.60;99.90
61253;DHT22;47127;47.516;8.596;2022-08-03T00:59:08;20.50;99.90
61253;DHT22;47127;47.516;8.596;2022-08-03T01:01:34;20.50;99.90
61253;DHT22;47127;47.516;8.596;2022-08-03T01:04:00;20.50;99.90
61253;DHT22;47127;47.516;8.596;2022-08-03T01:09:24;20.60;99.90
61253;DHT22;47127;47.516;8.596;2022-08-03T01:11:53;20.70;99.90
61253;DHT22;47127;47.516;8.596;2022-08-03T01:14:26;20.70;99.90
61253;DHT22;47127;47.516;8.596;2022-08-03T01:17:19;20.70;99.90
61253;DHT22;47127;47.516;8.596;2022-08-03T01:27:54;20.90;99.90
61253;DHT22;47127;47.516;8.596;2022-08-03T01:30:30;20.80;99.90
61253;DHT22;47127;47.516;8.596;2022-08-03T01:33:21;20.80;99.90
61253;DHT22;47127;47.516;8.596;2022-08-03T01:36:17;20.70;99.90
61253;DHT22;47127;47.516;8.596;2022-08-03T01:38:48;20.60;99.90
61253;DHT22;47127;47.516;8.596;2022-08-03T01:41:19;20.60;99.90
61253;DHT22;47127;47.516;8.596;2022-08-03T01:43:47;20.40;99.90
61253;DHT22;47127;47.516;8.596;2022-08-03T01:46:15;20.40;99.90
61253;DHT22;47127;47.516;8.596;2022-08-03T01:48:42;20.40;99.90
61253;DHT22;47127;47.516;8.596;2022-08-03T01:51:09;20.40;99.90
61253;DHT22;47127;47.516;8.596;2022-08-03T01:53:37;20.40;99.90
61253;DHT22;47127;47.516;8.596;2022-08-03T01:56:07;20.40;99.90
61253;DHT22;47127;47.516;8.596;2022-08-03T01:58:34;20.50;99.90
61253;DHT22;47127;47.516;8.596;2022-08-03T02:01:01;20.40;99.90
61253;DHT22;47127;47.516;8.596;2022-08-03T02:03:28;20.20;99.90
61253;DHT22;47127;47.516;8.596;2022-08-03T02:05:56;20.10;99.90
61253;DHT22;47127;47.516;8.596;2022-08-03T02:08:23;20.00;99.90
61253;DHT22;47127;47.516;8.596;2022-08-03T02:10:51;20.10;99.90
61253;DHT22;47127;47.516;8.596;2022-08-03T02:13:18;20.10;99.90
61253;DHT22;47127;47.516;8.596;2022-08-03T02:15:45;20.10;99.90
61253;DHT22;47127;47.516;8.596;2022-08-03T02:18:14;20.10;99.90
61253;DHT22;47127;47.516;8.596;2022-08-03T02:20:42;20.10;99.90
61253;DHT22;47127;47.516;8.596;2022-08-03T02:23:08;20.10;99.90
61253;DHT22;47127;47.516;8.596;2022-08-03T02:25:39;20.00;99.90
61253;DHT22;47127;47.516;8.596;2022-08-03T02:28:09;20.00;99.90
61253;DHT22;47127;47.516;8.596;2022-08-03T02:30:37;19.90;99.90
61253;DHT22;47127;47.516;8.596;2022-08-03T02:33:13;19.90;99.90
61253;DHT22;47127;47.516;8.596;2022-08-03T02:35:41;19.90;99.90
61253;DHT22;47127;47.516;8.596;2022-08-03T02:38:09;19.90;99.90
61253;DHT22;47127;47.516;8.596;2022-08-03T02:40:35;19.80;99.90
61253;DHT22;47127;47.516;8.596;2022-08-03T02:43:06;19.70;99.90
61253;DHT22;47127;47.516;8.596;2022-08-03T02:45:35;19.60;99.90
61253;DHT22;47127;47.516;8.596;2022-08-03T02:48:04;19.60;99.90
61253;DHT22;47127;47.516;8.596;2022-08-03T02:50:32;19.70;99.90
61253;DHT22;47127;47.516;8.596;2022-08-03T02:52:58;19.70;99.90
61253;DHT22;47127;47.516;8.596;2022-08-03T02:55:26;19.60;99.90
61253;DHT22;47127;47.516;8.596;2022-08-03T02:57:53;19.70;99.90
61253;DHT22;47127;47.516;8.596;2022-08-03T03:00:20;19.60;99.90
61253;DHT22;47127;47.516;8.596;2022-08-03T03:02:46;19.50;99.90
61253;DHT22;47127;47.516;8.596;2022-08-03T03:05:12;19.50;99.90
61253;DHT22;47127;47.516;8.596;2022-08-03T03:07:39;19.50;99.90
61253;DHT22;47127;47.516;8.596;2022-08-03T03:10:06;19.50;99.90
61253;DHT22;47127;47.516;8.596;2022-08-03T03:12:32;19.50;99.90
61253;DHT22;47127;47.516;8.596;2022-08-03T03:15:00;19.50;99.90
61253;DHT22;47127;47.516;8.596;2022-08-03T03:17:26;19.40;99.90
61253;DHT22;47127;47.516;8.596;2022-08-03T03:19:53;19.40;99.90
61253;DHT22;47127;47.516;8.596;2022-08-03T03:22:20;19.60;99.90
61253;DHT22;47127;47.516;8.596;2022-08-03T03:24:46;19.70;99.90
61253;DHT22;47127;47.516;8.596;2022-08-03T03:27:14;19.80;99.90
61253;DHT22;47127;47.516;8.596;2022-08-03T03:29:40;19.70;99.90
61253;DHT22;47127;47.516;8.596;2022-08-03T03:32:06;19.70;99.90
61253;DHT22;47127;47.516;8.596;2022-08-03T03:34:32;19.70;99.90
61253;DHT22;47127;47.516;8.596;2022-08-03T03:36:58;19.80;99.90
61253;DHT22;47127;47.516;8.596;2022-08-03T03:39:23;19.80;99.90
61253;DHT22;47127;47.516;8.596;2022-08-03T03:41:49;19.60;99.90
61253;DHT22;47127;47.516;8.596;2022-08-03T03:44:15;19.40;99.90
61253;DHT22;47127;47.516;8.596;2022-08-03T03:46:40;19.30;99.90
61253;DHT22;47127;47.516;8.596;2022-08-03T03:49:06;19.30;99.90
61253;DHT22;47127;47.516;8.596;2022-08-03T03:51:32;19.40;99.90
61253;DHT22;47127;47.516;8.596;2022-08-03T03:53:59;19.50;99.90
61253;DHT22;47127;47.516;8.596;2022-08-03T03:56:25;19.50;99.90
61253;DHT22;47127;47.516;8.596;2022-08-03T03:58:51;19.60;99.90
61253;DHT22;47127;47.516;8.596;2022-08-03T04:01:17;19.50;99.90
61253;DHT22;47127;47.516;8.596;2022-08-03T04:03:43;19.60;99.90
61253;DHT22;47127;47.516;8.596;2022-08-03T04:06:08;19.70;99.90
61253;DHT22;47127;47.516;8.596;2022-08-03T04:08:53;19.70;99.90
61253;DHT22;47127;47.516;8.596;2022-08-03T04:11:47;19.70;99.90
61253;DHT22;47127;47.516;8.596;2022-08-03T04:14:23;19.60;99.90
61253;DHT22;47127;47.516;8.596;2022-08-03T04:16:54;19.60;99.90
61253;DHT22;47127;47.516;8.596;2022-08-03T04:19:31;19.60;99.90
61253;DHT22;47127;47.516;8.596;2022-08-03T04:22:01;19.60;99.90
61253;DHT22;47127;47.516;8.596;2022-08-03T04:24:32;19.60;99.90
61253;DHT22;47127;47.516;8.596;2022-08-03T04:27:00;19.40;99.90
61253;DHT22;47127;47.516;8.596;2022-08-03T04:29:28;19.40;99.90
61253;DHT22;47127;47.516;8.596;2022-08-03T04:31:55;19.40;99.90
61253;DHT22;47127;47.516;8.596;2022-08-03T04:34:23;19.20;99.90
61253;DHT22;47127;47.516;8.596;2022-08-03T04:36:50;19.10;99.90
61253;DHT22;47127;47.516;8.596;2022-08-03T04:39:23;19.00;99.90
61253;DHT22;47127;47.516;8.596;2022-08-03T04:41:53;19.20;99.90
61253;DHT22;47127;47.516;8.596;2022-08-03T04:44:21;19.30;99.90
61253;DHT22;47127;47.516;8.596;2022-08-03T04:46:48;19.40;99.90
61253;DHT22;47127;47.516;8.596;2022-08-03T04:49:14;19.40;99.90
61253;DHT22;47127;47.516;8.596;2022-08-03T04:51:41;19.50;99.90
61253;DHT22;47127;47.516;8.596;2022-08-03T04:54:14;19.60;99.90
61253;DHT22;47127;47.516;8.596;2022-08-03T04:56:41;19.60;99.90
61253;DHT22;47127;47.516;8.596;2022-08-03T04:59:07;19.60;99.90
61253;DHT22;47127;47.516;8.596;2022-08-03T05:01:33;19.70;99.90
61253;DHT22;47127;47.516;8.596;2022-08-03T05:03:58;19.70;99.90
61253;DHT22;47127;47.516;8.596;2022-08-03T05:06:24;19.80;99.90
61253;DHT22;47127;47.516;8.596;2022-08-03T05:08:50;19.80;99.90
61253;DHT22;47127;47.516;8.596;2022-08-03T05:11:16;19.80;99.90
61253;DHT22;47127;47.516;8.596;2022-08-03T05:13:42;19.80;99.90
61253;DHT22;47127;47.516;8.596;2022-08-03T05:16:08;19.80;99.90
61253;DHT22;47127;47.516;8.596;2022-08-03T05:18:34;19.80;99.90
61253;DHT22;47127;47.516;8.596;2022-08-03T05:21:00;19.90;99.90
61253;DHT22;47127;47.516;8.596;2022-08-03T05:23:26;20.00;99.90
61253;DHT22;47127;47.516;8.596;2022-08-03T05:25:51;19.90;99.90
61253;DHT22;47127;47.516;8.596;2022-08-03T05:28:17;19.90;99.90
61253;DHT22;47127;47.516;8.596;2022-08-03T05:30:43;19.80;99.90
61253;DHT22;47127;47.516;8.596;2022-08-03T05:33:09;20.00;99.90
61253;DHT22;47127;47.516;8.596;2022-08-03T05:35:35;20.00;99.90
61253;DHT22;47127;47.516;8.596;2022-08-03T05:38:03;20.00;99.90
61253;DHT22;47127;47.516;8.596;2022-08-03T05:40:29;20.00;99.90
61253;DHT22;47127;47.516;8.596;2022-08-03T05:42:55;20.20;99.90
61253;DHT22;47127;47.516;8.596;2022-08-03T05:45:21;20.30;99.90
61253;DHT22;47127;47.516;8.596;2022-08-03T05:47:47;20.40;99.90
61253;DHT22;47127;47.516;8.596;2022-08-03T05:50:14;20.40;99.90
61253;DHT22;47127;47.516;8.596;2022-08-03T05:52:40;20.50;99.90
61253;DHT22;47127;47.516;8.596;2022-08-03T05:55:07;20.60;99.90
61253;DHT22;47127;47.516;8.596;2022-08-03T05:57:33;20.60;99.90
61253;DHT22;47127;47.516;8.596;2022-08-03T05:59:59;20.70;99.90
61253;DHT22;47127;47.516;8.596;2022-08-03T06:02:26;20.60;99.90
61253;DHT22;47127;47.516;8.596;2022-08-03T06:04:52;20.70;99.90
61253;DHT22;47127;47.516;8.596;2022-08-03T06:07:17;20.80;99.90
61253;DHT22;47127;47.516;8.596;2022-08-03T06:09:43;20.80;99.90
61253;DHT22;47127;47.516;8.596;2022-08-03T06:12:08;20.80;99.90
61253;DHT22;47127;47.516;8.596;2022-08-03T06:14:34;20.90;99.90
61253;DHT22;47127;47.516;8.596;2022-08-03T06:17:00;21.00;99.90
61253;DHT22;47127;47.516;8.596;2022-08-03T06:19:25;21.00;99.90
61253;DHT22;47127;47.516;8.596;2022-08-03T06:21:51;21.10;99.90
61253;DHT22;47127;47.516;8.596;2022-08-03T06:24:17;21.20;99.90
61253;DHT22;47127;47.516;8.596;2022-08-03T06:26:43;21.30;99.90
61253;DHT22;47127;47.516;8.596;2022-08-03T06:29:08;21.40;99.90
61253;DHT22;47127;47.516;8.596;2022-08-03T06:31:34;21.50;99.90
61253;DHT22;47127;47.516;8.596;2022-08-03T06:34:03;21.60;99.90
61253;DHT22;47127;47.516;8.596;2022-08-03T06:36:29;21.70;99.90
61253;DHT22;47127;47.516;8.596;2022-08-03T06:38:57;21.80;99.90
61253;DHT22;47127;47.516;8.596;2022-08-03T06:41:25;21.70;99.90
61253;DHT22;47127;47.516;8.596;2022-08-03T06:43:51;21.80;99.90
61253;DHT22;47127;47.516;8.596;2022-08-03T06:46:17;21.90;99.90
61253;DHT22;47127;47.516;8.596;2022-08-03T06:48:42;21.90;99.90
61253;DHT22;47127;47.516;8.596;2022-08-03T06:51:08;22.00;99.90
61253;DHT22;47127;47.516;8.596;2022-08-03T06:53:34;22.10;99.90
61253;DHT22;47127;47.516;8.596;2022-08-03T06:56:00;22.30;99.90
61253;DHT22;47127;47.516;8.596;2022-08-03T06:58:25;22.40;99.90
61253;DHT22;47127;47.516;8.596;2022-08-03T07:00:51;22.60;99.90
61253;DHT22;47127;47.516;8.596;2022-08-03T07:03:17;22.60;99.90
61253;DHT22;47127;47.516;8.596;2022-08-03T07:05:43;22.70;99.90
61253;DHT22;47127;47.516;8.596;2022-08-03T07:08:11;22.80;99.90
61253;DHT22;47127;47.516;8.596;2022-08-03T07:10:36;22.90;99.90
61253;DHT22;47127;47.516;8.596;2022-08-03T07:13:02;23.00;99.90
61253;DHT22;47127;47.516;8.596;2022-08-03T07:15:28;23.00;99.90
61253;DHT22;47127;47.516;8.596;2022-08-03T07:17:55;23.20;99.90
61253;DHT22;47127;47.516;8.596;2022-08-03T07:20:20;23.30;99.90
61253;DHT22;47127;47.516;8.596;2022-08-03T07:22:46;23.40;99.90
61253;DHT22;47127;47.516;8.596;2022-08-03T07:25:11;23.50;99.90
61253;DHT22;47127;47.516;8.596;2022-08-03T07:27:37;23.50;99.90
61253;DHT22;47127;47.516;8.596;2022-08-03T07:30:05;23.60;99.90
61253;DHT22;47127;47.516;8.596;2022-08-03T07:32:32;23.80;99.90
61253;DHT22;47127;47.516;8.596;2022-08-03T07:34:58;24.00;99.90
61253;DHT22;47127;47.516;8.596;2022-08-03T07:37:24;24.00;99.90
61253;DHT22;47127;47.516;8.596;2022-08-03T07:39:50;24.20;99.90
61253;DHT22;47127;47.516;8.596;2022-08-03T07:42:16;24.30;99.90
61253;DHT22;47127;47.516;8.596;2022-08-03T07:44:41;24.20;99.90
61253;DHT22;47127;47.516;8.596;2022-08-03T07:47:07;24.30;99.90
61253;DHT22;47127;47.516;8.596;2022-08-03T07:49:32;24.40;99.70
61253;DHT22;47127;47.516;8.596;2022-08-03T07:51:58;24.60;99.40
61253;DHT22;47127;47.516;8.596;2022-08-03T07:54:47;24.60;99.40
61253;DHT22;47127;47.516;8.596;2022-08-03T07:57:12;24.70;98.70
61253;DHT22;47127;47.516;8.596;2022-08-03T07:59:38;24.80;98.40
61253;DHT22;47127;47.516;8.596;2022-08-03T08:02:05;24.90;98.30
61253;DHT22;47127;47.516;8.596;2022-08-03T08:04:31;24.90;98.10
61253;DHT22;47127;47.516;8.596;2022-08-03T08:06:56;25.00;97.50
61253;DHT22;47127;47.516;8.596;2022-08-03T08:09:22;24.90;97.20
61253;DHT22;47127;47.516;8.596;2022-08-03T08:11:48;24.90;97.10
61253;DHT22;47127;47.516;8.596;2022-08-03T08:14:14;25.10;96.70
61253;DHT22;47127;47.516;8.596;2022-08-03T08:16:39;25.20;96.10
61253;DHT22;47127;47.516;8.596;2022-08-03T08:19:05;25.20;95.80
61253;DHT22;47127;47.516;8.596;2022-08-03T08:21:30;25.30;95.80
61253;DHT22;47127;47.516;8.596;2022-08-03T08:23:56;25.40;95.10
61253;DHT22;47127;47.516;8.596;2022-08-03T08:26:22;25.40;94.00
61253;DHT22;47127;47.516;8.596;2022-08-03T08:28:48;25.40;93.70
61253;DHT22;47127;47.516;8.596;2022-08-03T08:31:14;25.40;93.90
61253;DHT22;47127;47.516;8.596;2022-08-03T08:33:40;25.40;93.20
61253;DHT22;47127;47.516;8.596;2022-08-03T08:36:05;25.50;93.00
61253;DHT22;47127;47.516;8.596;2022-08-03T08:38:34;25.60;92.60
61253;DHT22;47127;47.516;8.596;2022-08-03T08:41:00;25.60;92.50
61253;DHT22;47127;47.516;8.596;2022-08-03T08:43:26;25.40;93.20
61253;DHT22;47127;47.516;8.596;2022-08-03T08:45:53;25.60;93.10
61253;DHT22;47127;47.516;8.596;2022-08-03T08:48:23;25.70;92.20
61253;DHT22;47127;47.516;8.596;2022-08-03T08:50:52;25.80;91.90
61253;DHT22;47127;47.516;8.596;2022-08-03T08:53:19;26.00;92.40
61253;DHT22;47127;47.516;8.596;2022-08-03T08:55:46;26.00;91.30
61253;DHT22;47127;47.516;8.596;2022-08-03T08:58:15;26.00;92.10
61253;DHT22;47127;47.516;8.596;2022-08-03T09:00:44;26.20;92.70
61253;DHT22;47127;47.516;8.596;2022-08-03T09:03:11;26.20;92.20
61253;DHT22;47127;47.516;8.596;2022-08-03T09:05:41;26.30;92.40
61253;DHT22;47127;47.516;8.596;2022-08-03T09:08:07;26.40;92.10
61253;DHT22;47127;47.516;8.596;2022-08-03T09:10:34;26.60;91.90
61253;DHT22;47127;47.516;8.596;2022-08-03T09:13:00;26.80;91.50
61253;DHT22;47127;47.516;8.596;2022-08-03T09:15:30;26.90;90.90
61253;DHT22;47127;47.516;8.596;2022-08-03T09:17:57;27.00;90.40
61253;DHT22;47127;47.516;8.596;2022-08-03T09:20:24;27.00;90.30
61253;DHT22;47127;47.516;8.596;2022-08-03T09:25:41;26.90;90.60
61253;DHT22;47127;47.516;8.596;2022-08-03T09:28:15;26.70;91.00
61253;DHT22;47127;47.516;8.596;2022-08-03T09:30:43;26.80;91.00
61253;DHT22;47127;47.516;8.596;2022-08-03T09:33:11;27.10;90.90
61253;DHT22;47127;47.516;8.596;2022-08-03T09:35:45;27.20;90.50
61253;DHT22;47127;47.516;8.596;2022-08-03T09:38:13;27.10;90.20
61253;DHT22;47127;47.516;8.596;2022-08-03T09:40:39;27.40;90.10
61253;DHT22;47127;47.516;8.596;2022-08-03T09:43:05;27.40;90.30
61253;DHT22;47127;47.516;8.596;2022-08-03T09:45:38;27.50;89.90
61253;DHT22;47127;47.516;8.596;2022-08-03T09:48:23;27.50;89.20
61253;DHT22;47127;47.516;8.596;2022-08-03T09:50:53;27.80;89.60
61253;DHT22;47127;47.516;8.596;2022-08-03T09:53:20;27.90;88.60
61253;DHT22;47127;47.516;8.596;2022-08-03T09:55:50;28.00;88.20
61253;DHT22;47127;47.516;8.596;2022-08-03T09:58:16;28.00;88.20
61253;DHT22;47127;47.516;8.596;2022-08-03T10:03:20;28.40;85.20
61253;DHT22;47127;47.516;8.596;2022-08-03T10:05:45;28.20;84.40
61253;DHT22;47127;47.516;8.596;2022-08-03T10:08:16;28.30;84.20
61253;DHT22;47127;47.516;8.596;2022-08-03T10:10:43;28.40;84.70
61253;DHT22;47127;47.516;8.596;2022-08-03T10:13:12;28.60;84.00
61253;DHT22;47127;47.516;8.596;2022-08-03T10:15:38;28.60;83.40
61253;DHT22;47127;47.516;8.596;2022-08-03T10:18:04;28.60;81.70
61253;DHT22;47127;47.516;8.596;2022-08-03T10:20:42;28.80;81.80
61253;DHT22;47127;47.516;8.596;2022-08-03T10:23:10;28.90;81.50
61253;DHT22;47127;47.516;8.596;2022-08-03T10:25:37;29.00;80.50
61253;DHT22;47127;47.516;8.596;2022-08-03T10:28:05;29.00;79.70
61253;DHT22;47127;47.516;8.596;2022-08-03T10:30:32;29.10;80.00
61253;DHT22;47127;47.516;8.596;2022-08-03T10:35:24;29.30;77.30
61253;DHT22;47127;47.516;8.596;2022-08-03T10:38:03;29.30;76.70
61253;DHT22;47127;47.516;8.596;2022-08-03T10:40:31;29.40;73.70
61253;DHT22;47127;47.516;8.596;2022-08-03T10:43:10;29.50;72.90
61253;DHT22;47127;47.516;8.596;2022-08-03T10:45:40;29.60;71.80
61253;DHT22;47127;47.516;8.596;2022-08-03T10:48:07;29.70;70.80
61253;DHT22;47127;47.516;8.596;2022-08-03T10:50:33;30.00;71.80
61253;DHT22;47127;47.516;8.596;2022-08-03T10:53:01;30.10;71.30
61253;DHT22;47127;47.516;8.596;2022-08-03T10:55:35;30.20;70.80
61253;DHT22;47127;47.516;8.596;2022-08-03T11:01:08;30.30;70.40
61253;DHT22;47127;47.516;8.596;2022-08-03T11:06:26;30.40;67.90
61253;DHT22;47127;47.516;8.596;2022-08-03T11:11:40;30.70;66.10
61253;DHT22;47127;47.516;8.596;2022-08-03T11:14:19;30.70;65.70
61253;DHT22;47127;47.516;8.596;2022-08-03T11:16:47;30.90;63.10
61253;DHT22;47127;47.516;8.596;2022-08-03T11:19:19;30.90;63.10
61253;DHT22;47127;47.516;8.596;2022-08-03T11:21:51;31.00;63.60
61253;DHT22;47127;47.516;8.596;2022-08-03T11:29:54;31.30;60.20
61253;DHT22;47127;47.516;8.596;2022-08-03T11:35:15;31.20;60.20
61253;DHT22;47127;47.516;8.596;2022-08-03T11:51:00;32.30;58.70
61253;DHT22;47127;47.516;8.596;2022-08-03T11:53:26;32.50;57.00
61253;DHT22;47127;47.516;8.596;2022-08-03T11:55:52;32.20;57.20
61253;DHT22;47127;47.516;8.596;2022-08-03T11:58:21;32.50;56.80
61253;DHT22;47127;47.516;8.596;2022-08-03T12:00:48;32.60;56.80
61253;DHT22;47127;47.516;8.596;2022-08-03T12:03:16;32.90;56.40
61253;DHT22;47127;47.516;8.596;2022-08-03T12:05:51;33.00;55.30
61253;DHT22;47127;47.516;8.596;2022-08-03T12:08:28;33.40;54.60
61253;DHT22;47127;47.516;8.596;2022-08-03T12:10:56;33.50;54.80
61253;DHT22;47127;47.516;8.596;2022-08-03T12:13:22;33.30;54.50
61253;DHT22;47127;47.516;8.596;2022-08-03T12:15:52;33.50;54.50
61253;DHT22;47127;47.516;8.596;2022-08-03T12:18:18;33.50;54.20
61253;DHT22;47127;47.516;8.596;2022-08-03T12:20:45;33.40;54.20
61253;DHT22;47127;47.516;8.596;2022-08-03T12:23:12;33.30;54.80
61253;DHT22;47127;47.516;8.596;2022-08-03T12:25:39;33.40;54.70
61253;DHT22;47127;47.516;8.596;2022-08-03T12:28:11;33.40;53.90
61253;DHT22;47127;47.516;8.596;2022-08-03T12:30:38;33.60;53.70
61253;DHT22;47127;47.516;8.596;2022-08-03T12:33:21;34.00;53.40
61253;DHT22;47127;47.516;8.596;2022-08-03T12:35:59;34.10;52.90
61253;DHT22;47127;47.516;8.596;2022-08-03T12:38:26;33.90;52.40
61253;DHT22;47127;47.516;8.596;2022-08-03T12:41:01;33.60;53.00
61253;DHT22;47127;47.516;8.596;2022-08-03T12:43:27;33.90;52.10
61253;DHT22;47127;47.516;8.596;2022-08-03T12:46:09;33.90;52.30
61253;DHT22;47127;47.516;8.596;2022-08-03T12:48:35;34.10;52.00
61253;DHT22;47127;47.516;8.596;2022-08-03T12:51:10;34.30;51.70
61253;DHT22;47127;47.516;8.596;2022-08-03T12:53:36;33.90;51.60
61253;DHT22;47127;47.516;8.596;2022-08-03T12:56:03;33.70;52.30
61253;DHT22;47127;47.516;8.596;2022-08-03T12:58:35;33.70;51.40
61253;DHT22;47127;47.516;8.596;2022-08-03T13:01:04;33.70;51.10
61253;DHT22;47127;47.516;8.596;2022-08-03T13:03:41;33.70;49.00
61253;DHT22;47127;47.516;8.596;2022-08-03T13:06:14;33.40;49.00
61253;DHT22;47127;47.516;8.596;2022-08-03T13:08:40;33.00;50.00
61253;DHT22;47127;47.516;8.596;2022-08-03T13:11:23;32.90;49.30
61253;DHT22;47127;47.516;8.596;2022-08-03T13:13:51;33.00;50.00
61253;DHT22;47127;47.516;8.596;2022-08-03T13:16:17;33.10;49.20
61253;DHT22;47127;47.516;8.596;2022-08-03T13:18:43;33.20;49.00
61253;DHT22;47127;47.516;8.596;2022-08-03T13:21:11;33.60;49.30
61253;DHT22;47127;47.516;8.596;2022-08-03T13:23:37;33.80;49.20
61253;DHT22;47127;47.516;8.596;2022-08-03T13:26:03;34.20;49.10
61253;DHT22;47127;47.516;8.596;2022-08-03T13:28:28;34.30;48.80
61253;DHT22;47127;47.516;8.596;2022-08-03T13:30:54;34.10;50.10
61253;DHT22;47127;47.516;8.596;2022-08-03T13:33:20;34.60;50.30
61253;DHT22;47127;47.516;8.596;2022-08-03T13:35:45;34.90;49.00
61253;DHT22;47127;47.516;8.596;2022-08-03T13:38:11;35.00;48.30
61253;DHT22;47127;47.516;8.596;2022-08-03T13:40:36;35.10;47.90
61253;DHT22;47127;47.516;8.596;2022-08-03T13:43:02;35.20;47.40
61253;DHT22;47127;47.516;8.596;2022-08-03T13:45:28;35.40;47.10
61253;DHT22;47127;47.516;8.596;2022-08-03T13:47:54;35.50;46.90
61253;DHT22;47127;47.516;8.596;2022-08-03T13:50:19;35.40;47.10
61253;DHT22;47127;47.516;8.596;2022-08-03T13:52:45;35.40;47.10
61253;DHT22;47127;47.516;8.596;2022-08-03T13:55:11;35.60;46.80
61253;DHT22;47127;47.516;8.596;2022-08-03T13:57:36;35.70;47.10
61253;DHT22;47127;47.516;8.596;2022-08-03T14:00:04;35.60;47.00
61253;DHT22;47127;47.516;8.596;2022-08-03T14:02:30;35.30;46.30
61253;DHT22;47127;47.516;8.596;2022-08-03T14:04:55;35.60;45.90
61253;DHT22;47127;47.516;8.596;2022-08-03T14:07:21;35.30;46.70
61253;DHT22;47127;47.516;8.596;2022-08-03T14:09:46;35.50;46.20
61253;DHT22;47127;47.516;8.596;2022-08-03T14:12:12;35.40;46.30
61253;DHT22;47127;47.516;8.596;2022-08-03T14:14:37;35.70;45.90
61253;DHT22;47127;47.516;8.596;2022-08-03T14:17:03;35.50;46.00
61253;DHT22;47127;47.516;8.596;2022-08-03T14:19:29;35.60;46.30
61253;DHT22;47127;47.516;8.596;2022-08-03T14:21:54;36.10;45.70
61253;DHT22;47127;47.516;8.596;2022-08-03T14:24:20;36.00;45.60
61253;DHT22;47127;47.516;8.596;2022-08-03T14:26:45;35.70;45.70
61253;DHT22;47127;47.516;8.596;2022-08-03T14:29:11;35.60;45.80
61253;DHT22;47127;47.516;8.596;2022-08-03T14:31:36;35.90;45.50
61253;DHT22;47127;47.516;8.596;2022-08-03T14:34:02;36.30;45.20
61253;DHT22;47127;47.516;8.596;2022-08-03T14:36:28;36.30;45.00
61253;DHT22;47127;47.516;8.596;2022-08-03T14:38:53;36.20;45.10
61253;DHT22;47127;47.516;8.596;2022-08-03T14:41:19;36.40;45.10
61253;DHT22;47127;47.516;8.596;2022-08-03T14:43:45;36.70;45.00
61253;DHT22;47127;47.516;8.596;2022-08-03T14:46:11;36.40;45.30
61253;DHT22;47127;47.516;8.596;2022-08-03T14:48:36;36.70;44.70
61253;DHT22;47127;47.516;8.596;2022-08-03T14:51:03;36.80;43.80
61253;DHT22;47127;47.516;8.596;2022-08-03T14:53:28;36.70;44.00
61253;DHT22;47127;47.516;8.596;2022-08-03T14:55:54;36.70;44.10
61253;DHT22;47127;47.516;8.596;2022-08-03T14:58:21;36.80;44.00
61253;DHT22;47127;47.516;8.596;2022-08-03T15:00:48;36.60;44.00
61253;DHT22;47127;47.516;8.596;2022-08-03T15:03:14;36.80;44.00
61253;DHT22;47127;47.516;8.596;2022-08-03T15:05:40;37.10;43.70
61253;DHT22;47127;47.516;8.596;2022-08-03T15:08:06;37.20;43.50
61253;DHT22;47127;47.516;8.596;2022-08-03T15:10:31;37.20;42.70
61253;DHT22;47127;47.516;8.596;2022-08-03T15:12:57;37.00;43.00
61253;DHT22;47127;47.516;8.596;2022-08-03T15:15:22;37.00;43.10
61253;DHT22;47127;47.516;8.596;2022-08-03T15:17:48;37.10;42.90
61253;DHT22;47127;47.516;8.596;2022-08-03T15:20:13;37.10;42.70
61253;DHT22;47127;47.516;8.596;2022-08-03T15:22:39;37.00;42.50
61253;DHT22;47127;47.516;8.596;2022-08-03T15:25:06;37.10;42.40
61253;DHT22;47127;47.516;8.596;2022-08-03T15:27:31;37.10;42.30
61253;DHT22;47127;47.516;8.596;2022-08-03T15:29:57;37.50;41.90
61253;DHT22;47127;47.516;8.596;2022-08-03T15:32:22;37.70;41.50
61253;DHT22;47127;47.516;8.596;2022-08-03T15:34:48;37.80;41.40
61253;DHT22;47127;47.516;8.596;2022-08-03T15:37:14;38.00;41.00
61253;DHT22;47127;47.516;8.596;2022-08-03T15:39:40;38.00;40.80
61253;DHT22;47127;47.516;8.596;2022-08-03T15:42:05;38.10;40.40
61253;DHT22;47127;47.516;8.596;2022-08-03T15:44:31;37.50;40.50
61253;DHT22;47127;47.516;8.596;2022-08-03T15:46:56;37.80;40.90
61253;DHT22;47127;47.516;8.596;2022-08-03T15:49:22;38.10;39.80
61253;DHT22;47127;47.516;8.596;2022-08-03T15:51:47;38.00;39.70
61253;DHT22;47127;47.516;8.596;2022-08-03T15:54:13;38.30;39.70
61253;DHT22;47127;47.516;8.596;2022-08-03T15:56:38;38.50;40.20
61253;DHT22;47127;47.516;8.596;2022-08-03T15:59:06;38.40;39.50
61253;DHT22;47127;47.516;8.596;2022-08-03T16:01:31;38.00;39.40
61253;DHT22;47127;47.516;8.596;2022-08-03T16:03:57;37.70;38.90
61253;DHT22;47127;47.516;8.596;2022-08-03T16:06:23;37.60;39.00
61253;DHT22;47127;47.516;8.596;2022-08-03T16:08:48;37.40;39.00
61253;DHT22;47127;47.516;8.596;2022-08-03T16:11:14;37.50;39.10
61253;DHT22;47127;47.516;8.596;2022-08-03T16:13:40;37.70;39.00
61253;DHT22;47127;47.516;8.596;2022-08-03T16:16:06;37.60;39.20
61253;DHT22;47127;47.516;8.596;2022-08-03T16:18:31;37.30;39.30
61253;DHT22;47127;47.516;8.596;2022-08-03T16:20:57;37.00;39.50